createdAt,value
2023-10-06T00:02:32.181Z,23.33
2023-10-06T00:07:34.932Z,23.30
2023-10-06T00:12:40.879Z,23.28
2023-10-06T00:17:50.066Z,23.24
2023-10-06T00:22:55.470Z,23.23
2023-10-06T00:28:01.884Z,23.24
2023-10-06T00:33:07.556Z,23.21
2023-10-06T00:38:18.824Z,23.22
2023-10-06T00:43:36.582Z,23.20
2023-10-06T00:48:46.632Z,23.20
2023-10-06T00:53:57.419Z,23.21
2023-10-06T00:59:05.263Z,23.23
2023-10-06T01:04:13.679Z,23.24
2023-10-06T01:09:18.508Z,23.25
2023-10-06T01:14:27.713Z,23.26
2023-10-06T01:19:34.635Z,23.27
2023-10-06T01:25:12.893Z,23.31
2023-10-06T01:30:17.868Z,23.33
2023-10-06T01:35:25.677Z,23.34
2023-10-06T01:40:29.594Z,23.36
2023-10-06T01:45:31.719Z,23.39
2023-10-06T01:50:36.797Z,23.40
2023-10-06T01:55:40.102Z,23.37
2023-10-06T02:00:42.617Z,23.33
2023-10-06T02:06:01.167Z,23.29
2023-10-06T02:11:04.568Z,23.24
2023-10-06T02:16:08.097Z,23.23
2023-10-06T02:21:24.973Z,23.19
2023-10-06T02:26:27.085Z,23.14
2023-10-06T02:31:30.102Z,23.10
2023-10-06T02:36:32.392Z,23.04
2023-10-06T02:41:35.322Z,23.04
2023-10-06T02:46:38.560Z,23.00
2023-10-06T02:51:49.716Z,22.98
2023-10-06T02:56:56.498Z,22.93
2023-10-06T03:02:08.230Z,22.90
2023-10-06T03:07:15.752Z,22.86
2023-10-06T03:12:24.178Z,22.83
2023-10-06T03:17:28.311Z,22.81
2023-10-06T03:22:31.388Z,22.78
2023-10-06T03:27:34.682Z,22.78
2023-10-06T03:32:40.892Z,22.81
2023-10-06T03:37:54.040Z,22.78
2023-10-06T03:43:06.017Z,22.77
2023-10-06T03:48:14.537Z,22.78
2023-10-06T03:53:18.785Z,22.78
2023-10-06T03:58:21.044Z,22.75
2023-10-06T04:04:14.307Z,22.75
2023-10-06T04:09:29.786Z,22.72
2023-10-06T04:14:37.229Z,22.72
2023-10-06T04:19:39.957Z,22.70
2023-10-06T04:24:41.987Z,22.68
2023-10-06T04:29:55.371Z,22.75
2023-10-06T04:35:01.042Z,22.80
2023-10-06T04:40:03.662Z,22.81
2023-10-06T04:45:08.207Z,22.83
2023-10-06T04:50:10.876Z,22.93
2023-10-06T04:55:13.239Z,22.93
2023-10-06T05:00:22.584Z,22.91
2023-10-06T05:05:27.185Z,22.94
2023-10-06T05:10:32.044Z,22.91
2023-10-06T05:15:36.679Z,22.89
2023-10-06T05:20:38.926Z,22.86
2023-10-06T05:25:41.919Z,22.85
2023-10-06T05:30:45.726Z,22.84
2023-10-06T05:35:48.928Z,22.84
2023-10-06T05:40:51.290Z,22.80
2023-10-06T05:45:53.863Z,22.77
2023-10-06T05:51:06.860Z,22.73
2023-10-06T05:56:13.218Z,22.67
2023-10-06T06:01:18.535Z,22.66
2023-10-06T06:06:24.566Z,22.68
2023-10-06T06:11:29.115Z,22.72
2023-10-06T06:16:34.610Z,22.71
2023-10-06T06:21:36.946Z,22.71
2023-10-06T06:26:40.040Z,22.72
2023-10-06T06:31:42.636Z,22.78
2023-10-06T06:36:46.422Z,22.81
2023-10-06T06:41:57.364Z,22.86
2023-10-06T06:46:59.686Z,22.94
2023-10-06T06:52:01.839Z,23.02
2023-10-06T06:57:06.879Z,23.15
2023-10-06T07:02:10.982Z,23.26
2023-10-06T07:07:13.048Z,23.47
2023-10-06T07:12:19.752Z,23.72
2023-10-06T07:17:23.306Z,24.01
2023-10-06T07:22:35.510Z,24.25
2023-10-06T07:27:40.756Z,24.49
2023-10-06T07:32:44.356Z,24.72
2023-10-06T07:37:49.286Z,24.92
2023-10-06T07:42:52.962Z,25.14
2023-10-06T07:47:57.125Z,25.35
2023-10-06T07:52:59.236Z,25.58
2023-10-06T07:58:01.883Z,25.80
2023-10-06T08:03:05.500Z,25.96
2023-10-06T08:08:09.999Z,26.10
2023-10-06T08:13:13.254Z,26.37
2023-10-06T08:18:16.635Z,26.56
2023-10-06T08:23:19.936Z,26.75
2023-10-06T08:28:25.714Z,26.95
2023-10-06T08:33:28.972Z,27.13
2023-10-06T08:38:42.101Z,27.35
2023-10-06T08:43:46.650Z,27.51
2023-10-06T08:48:52.507Z,27.65
2023-10-06T08:53:57.231Z,27.77
2023-10-06T08:58:59.519Z,27.86
2023-10-06T09:04:09.874Z,27.90
2023-10-06T09:09:27.674Z,28.11
2023-10-06T09:14:31.972Z,28.24
2023-10-06T09:19:52.285Z,28.30
2023-10-06T09:25:09.884Z,28.35
2023-10-06T09:30:13.963Z,28.42
2023-10-06T09:35:26.795Z,28.50
2023-10-06T09:40:33.471Z,28.66
2023-10-06T09:45:41.547Z,28.78
2023-10-06T09:50:45.456Z,28.88
2023-10-06T09:55:53.523Z,29.03
2023-10-06T10:00:57.728Z,29.05
2023-10-06T10:06:05.091Z,28.80
2023-10-06T10:11:32.598Z,28.46
2023-10-06T10:17:00.646Z,28.22
2023-10-06T10:22:12.572Z,28.00
2023-10-06T10:27:21.965Z,27.70
2023-10-06T10:32:24.653Z,27.55
2023-10-06T10:37:31.376Z,27.43
2023-10-06T10:42:41.178Z,27.36
2023-10-06T10:47:43.524Z,27.50
2023-10-06T10:52:49.619Z,27.46
2023-10-06T10:57:52.333Z,27.49
2023-10-06T11:03:02.296Z,27.57
2023-10-06T11:08:08.951Z,27.74
2023-10-06T11:13:23.715Z,28.00
2023-10-06T11:18:36.400Z,28.03
2023-10-06T11:23:45.198Z,27.94
2023-10-06T11:28:48.626Z,27.62
2023-10-06T11:33:51.240Z,27.59
2023-10-06T11:38:53.601Z,27.45
2023-10-06T11:44:01.588Z,27.35
2023-10-06T11:49:11.245Z,27.34
2023-10-06T11:54:13.466Z,27.21
2023-10-06T11:59:24.087Z,27.15
2023-10-06T12:04:37.790Z,27.06
2023-10-06T12:09:40.100Z,26.92
2023-10-06T12:14:43.212Z,27.07
2023-10-06T12:19:45.961Z,27.10
2023-10-06T12:24:50.544Z,27.24
2023-10-06T12:29:59.123Z,27.28
2023-10-06T12:35:09.758Z,27.51
2023-10-06T12:40:18.042Z,27.45
2023-10-06T12:45:21.742Z,27.53
2023-10-06T12:50:25.162Z,27.47
2023-10-06T12:55:30.372Z,27.24
2023-10-06T13:00:34.875Z,27.50
2023-10-06T13:05:37.227Z,27.80
2023-10-06T13:10:39.444Z,27.88
2023-10-06T13:15:46.662Z,27.99
2023-10-06T13:20:51.347Z,27.72
2023-10-06T13:25:55.011Z,27.71
2023-10-06T13:30:57.792Z,27.50
2023-10-06T13:36:04.953Z,27.77
2023-10-06T13:41:10.167Z,27.89
2023-10-06T13:46:14.543Z,27.79
2023-10-06T13:51:18.198Z,27.70
2023-10-06T13:56:20.756Z,27.65
2023-10-06T14:01:31.812Z,27.36
2023-10-06T14:06:35.619Z,27.21
2023-10-06T14:11:41.443Z,27.16
2023-10-06T14:16:47.876Z,27.03
2023-10-06T14:21:52.569Z,26.97
2023-10-06T14:26:54.817Z,27.02
2023-10-06T14:32:10.859Z,26.98
2023-10-06T14:37:29.210Z,26.93
2023-10-06T14:42:54.235Z,26.94
2023-10-06T14:47:57.611Z,26.92
2023-10-06T14:52:59.838Z,26.85
2023-10-06T14:58:02.144Z,26.62
2023-10-06T15:03:04.884Z,26.52
2023-10-06T15:08:12.315Z,26.68
2023-10-06T15:13:15.581Z,26.61
2023-10-06T15:18:20.274Z,26.55
2023-10-06T15:23:24.601Z,26.51
2023-10-06T15:28:38.117Z,26.46
2023-10-06T15:33:46.313Z,26.51
2023-10-06T15:38:49.525Z,26.52
2023-10-06T15:43:52.099Z,26.45
2023-10-06T15:48:59.765Z,26.24
2023-10-06T15:54:09.922Z,26.19
2023-10-06T15:59:22.500Z,26.15
2023-10-06T16:04:26.739Z,26.05
2023-10-06T16:09:29.763Z,26.04
2023-10-06T16:14:34.053Z,26.04
2023-10-06T16:19:40.474Z,26.03
2023-10-06T16:24:42.970Z,25.82
2023-10-06T16:29:45.070Z,25.72
2023-10-06T16:34:51.058Z,25.83
2023-10-06T16:39:54.538Z,25.83
2023-10-06T16:45:13.475Z,25.82
2023-10-06T16:50:16.898Z,25.63
2023-10-06T16:55:19.919Z,25.53
2023-10-06T17:00:23.569Z,25.54
2023-10-06T17:05:27.547Z,25.53
2023-10-06T17:10:30.225Z,25.52
2023-10-06T17:15:37.189Z,25.41
2023-10-06T17:20:41.887Z,25.18
2023-10-06T17:25:44.219Z,25.14
2023-10-06T17:30:50.930Z,25.05
2023-10-06T17:35:55.303Z,25.02
2023-10-06T17:41:00.613Z,25.09
2023-10-06T17:46:03.082Z,24.89
2023-10-06T17:51:08.122Z,24.85
2023-10-06T17:56:12.917Z,24.92
2023-10-06T18:01:18.985Z,24.73
2023-10-06T18:06:21.971Z,24.80
2023-10-06T18:11:24.802Z,24.75
2023-10-06T18:16:27.005Z,24.82
2023-10-06T18:21:33.833Z,24.78
2023-10-06T18:26:37.872Z,24.77
2023-10-06T18:31:41.358Z,24.74
2023-10-06T18:36:43.476Z,24.84
2023-10-06T18:41:57.103Z,24.88
2023-10-06T18:47:00.929Z,24.87
2023-10-06T18:52:03.256Z,24.94
2023-10-06T18:57:08.804Z,24.94
2023-10-06T19:02:12.859Z,24.97
2023-10-06T19:07:18.472Z,24.84
2023-10-06T19:12:22.436Z,24.81
2023-10-06T19:17:26.136Z,24.70
2023-10-06T19:22:31.838Z,24.65
2023-10-06T19:27:45.069Z,24.75
2023-10-06T19:32:49.825Z,24.83
2023-10-06T19:37:52.668Z,24.89
2023-10-06T19:42:58.729Z,24.91
2023-10-06T19:48:01.224Z,24.92
2023-10-06T19:53:06.085Z,24.96
2023-10-06T19:58:11.538Z,25.00
2023-10-06T20:03:14.071Z,25.00
2023-10-06T20:08:16.409Z,24.96
2023-10-06T20:13:21.212Z,24.95
2023-10-06T20:18:27.542Z,24.96
2023-10-06T20:23:32.574Z,24.97
2023-10-06T20:28:37.942Z,24.97
2023-10-06T20:33:41.193Z,24.97
2023-10-06T20:38:43.410Z,25.00
2023-10-06T20:43:45.808Z,25.04
2023-10-06T20:48:48.079Z,25.05
2023-10-06T20:53:58.883Z,25.07
2023-10-06T20:59:01.033Z,25.08
2023-10-06T21:04:08.357Z,25.12
2023-10-06T21:09:10.948Z,25.14
2023-10-06T21:14:16.657Z,25.14
2023-10-06T21:19:22.962Z,25.11
2023-10-06T21:24:27.100Z,25.09
2023-10-06T21:29:30.158Z,25.04
2023-10-06T21:34:32.379Z,25.00
2023-10-06T21:39:38.709Z,24.97
2023-10-06T21:44:42.642Z,24.91
2023-10-06T21:49:47.936Z,24.86
2023-10-06T21:54:53.360Z,24.82
2023-10-06T21:59:59.067Z,24.78
2023-10-06T22:05:02.618Z,24.74
2023-10-06T22:10:10.703Z,24.71
2023-10-06T22:15:13.081Z,24.71
2023-10-06T22:20:15.716Z,24.70
2023-10-06T22:25:20.071Z,24.68
2023-10-06T22:30:24.199Z,24.66
2023-10-06T22:35:36.537Z,24.65
2023-10-06T22:40:43.178Z,24.63
2023-10-06T22:45:46.817Z,24.63
2023-10-06T22:50:49.761Z,24.61
2023-10-06T22:55:55.977Z,24.62
2023-10-06T23:00:58.326Z,24.58
2023-10-06T23:06:03.162Z,24.58
2023-10-06T23:11:08.012Z,24.58
2023-10-06T23:16:14.968Z,24.61
2023-10-06T23:21:20.890Z,24.60
2023-10-06T23:26:25.132Z,24.56
2023-10-06T23:31:28.761Z,24.54
2023-10-06T23:36:31.466Z,24.52
2023-10-06T23:41:38.597Z,24.50
2023-10-06T23:46:40.981Z,24.48
2023-10-06T23:51:43.058Z,24.46
2023-10-06T23:56:48.702Z,24.42
